CheckWX is a tool to help pilots better visualize weather data.  It is not intended as a substitute for an official pre-flight weather briefing.

20:32:18 UTC

LIML TAF
Linate Airport
Milan, Italy
TAF LIML 221700Z 2218/2318 VRB05KT CAVOK

Mar-22@
18:00 UTC

Mar-22 @ 18:00 UTC

Mar-23@
18:00 UTC

Mar-23 @ 18:00 UTC

TAF LIML 221700Z 2218/2318 VRB05KT CAVOK
Wind
  • Variable at 5 KTS
Conditions
No significant weather
Cloud Levels
  • No significant clouds